Time;durP1;ratioP1;P1;durP2;ratioP2;P2;SDS_P1;SDS_P2;PMS_P1;PMS_P2;Temp;Humidity;BMP_temperature;BMP_pressure;BME280_temperature;BME280_humidity;BME280_pressure;Samples;Min_cycle;Max_cycle;Signal;HPM_P1;HPM_P2
2022/07/21 00:01:01;;;;;;;8.80;6.33;;;23.80;66.90;;;;;;5080270;28;20203;-96
2022/07/21 00:03:31;;;;;;;11.33;6.37;;;23.80;67.20;;;;;;5073590;28;20200;-96
2022/07/21 00:05:59;;;;;;;11.80;7.10;;;23.80;67.00;;;;;;5074564;28;20681;-96
2022/07/21 00:08:42;;;;;;;15.90;8.73;;;23.80;67.10;;;;;;5075910;28;20208;-96
2022/07/21 00:11:12;;;;;;;8.80;6.07;;;23.80;67.60;;;;;;5065609;28;20206;-96
2022/07/21 00:13:41;;;;;;;14.23;7.37;;;23.80;67.00;;;;;;5076742;28;20212;-96
2022/07/21 00:16:10;;;;;;;12.80;7.63;;;23.70;67.30;;;;;;5063589;28;20202;-96
2022/07/21 00:18:38;;;;;;;10.87;7.00;;;23.70;67.40;;;;;;5070405;28;20202;-96
2022/07/21 00:21:11;;;;;;;18.53;9.00;;;23.70;67.30;;;;;;5072986;28;20260;-96
2022/07/21 00:23:55;;;;;;;11.33;6.50;;;23.70;67.80;;;;;;5060459;28;20224;-96
2022/07/21 00:26:25;;;;;;;11.97;7.57;;;23.60;67.70;;;;;;5057272;28;20200;-96
2022/07/21 00:28:54;;;;;;;14.50;7.90;;;23.60;67.50;;;;;;5055490;28;20200;-96
2022/07/21 00:31:27;;;;;;;14.33;8.20;;;23.60;67.60;;;;;;5066983;28;20196;-96
2022/07/21 00:33:55;;;;;;;15.93;8.27;;;23.60;68.10;;;;;;5073481;28;20603;-96
2022/07/21 00:36:26;;;;;;;17.67;9.07;;;23.60;68.00;;;;;;5071230;28;20201;-94
2022/07/21 00:38:55;;;;;;;15.17;9.10;;;23.60;68.00;;;;;;5069376;28;20207;-95
2022/07/21 00:41:34;;;;;;;12.80;8.93;;;23.50;68.30;;;;;;5067978;28;20572;-95
2022/07/21 00:44:04;;;;;;;15.73;8.27;;;23.50;68.10;;;;;;5059373;28;20219;-95
2022/07/21 00:46:33;;;;;;;13.47;9.20;;;23.50;68.20;;;;;;5069396;28;20304;-95
2022/07/21 00:49:01;;;;;;;17.50;9.43;;;23.50;68.50;;;;;;5058342;28;20296;-96
2022/07/21 00:51:28;;;;;;;13.23;8.33;;;23.40;68.40;;;;;;5053743;28;20203;-96
2022/07/21 00:53:58;;;;;;;19.83;10.70;;;23.40;68.40;;;;;;5067183;28;20217;-96
2022/07/21 00:56:27;;;;;;;17.57;10.03;;;23.40;68.90;;;;;;5071886;28;20209;-96
2022/07/21 00:59:04;;;;;;;18.03;9.60;;;23.40;68.80;;;;;;5062850;28;20242;-96
2022/07/21 01:01:35;;;;;;;14.83;9.27;;;23.30;68.80;;;;;;5061092;28;20218;-96
2022/07/21 01:04:04;;;;;;;13.57;9.33;;;23.30;68.90;;;;;;5072764;28;20234;-96
2022/07/21 01:06:37;;;;;;;12.07;8.20;;;23.30;69.30;;;;;;5068190;28;20543;-94
2022/07/21 01:09:10;;;;;;;13.80;8.93;;;23.30;69.40;;;;;;5072193;28;20265;-96
2022/07/21 01:11:39;;;;;;;11.57;8.60;;;23.30;69.30;;;;;;5065468;28;20200;-96
2022/07/21 01:14:06;;;;;;;18.73;10.40;;;23.20;69.20;;;;;;5066695;28;20215;-96
2022/07/21 01:16:35;;;;;;;15.03;8.93;;;23.20;69.60;;;;;;5072706;28;20199;-96
2022/07/21 01:19:02;;;;;;;11.80;8.57;;;23.20;69.50;;;;;;5076519;28;20210;-96
2022/07/21 01:21:47;;;;;;;19.07;9.23;;;23.20;69.30;;;;;;5055785;28;20208;-96
2022/07/21 01:24:19;;;;;;;16.13;9.87;;;23.20;70.20;;;;;;5056810;28;20204;-95
2022/07/21 01:26:50;;;;;;;13.20;7.87;;;23.10;70.10;;;;;;5056774;28;20538;-96
2022/07/21 01:29:24;;;;;;;17.67;10.03;;;23.10;70.20;;;;;;5056133;28;20211;-96
2022/07/21 01:31:52;;;;;;;14.07;7.87;;;23.00;70.30;;;;;;5075839;28;20652;-96
2022/07/21 01:34:19;;;;;;;13.83;8.27;;;23.00;70.40;;;;;;5075824;28;20237;-96
2022/07/21 01:36:54;;;;;;;14.17;8.83;;;23.00;70.30;;;;;;5075094;28;20198;-96
2022/07/21 01:42:10;;;;;;;12.50;7.43;;;23.00;70.70;;;;;;5072883;28;20224;-96
2022/07/21 01:44:40;;;;;;;12.47;7.00;;;23.00;70.90;;;;;;5066646;28;20200;-96
2022/07/21 01:47:08;;;;;;;13.53;8.47;;;22.90;70.80;;;;;;5055575;28;20204;-96
2022/07/21 01:49:36;;;;;;;16.10;7.93;;;22.90;70.90;;;;;;5071532;28;20204;-96
2022/07/21 01:52:08;;;;;;;16.00;8.77;;;22.90;71.00;;;;;;5076240;28;20698;-93
2022/07/21 01:54:44;;;;;;;13.27;8.13;;;22.90;71.00;;;;;;5061985;28;21072;-96
2022/07/21 01:57:11;;;;;;;15.13;7.73;;;22.90;71.40;;;;;;5077139;28;20208;-96
2022/07/21 01:59:41;;;;;;;14.27;8.23;;;22.90;71.00;;;;;;5065260;28;20251;-96
2022/07/21 02:02:11;;;;;;;16.10;8.43;;;22.90;71.50;;;;;;5065506;28;20665;-96
2022/07/21 02:04:38;;;;;;;16.13;8.90;;;22.90;71.10;;;;;;5063295;28;20195;-96
2022/07/21 02:07:08;;;;;;;17.30;8.60;;;22.90;71.30;;;;;;5070465;28;20213;-96
2022/07/21 02:09:39;;;;;;;11.73;7.27;;;22.90;71.60;;;;;;5080476;28;20208;-96
2022/07/21 02:12:07;;;;;;;12.23;8.50;;;22.90;71.40;;;;;;5063770;28;20220;-96
2022/07/21 02:14:34;;;;;;;14.77;9.30;;;22.90;71.60;;;;;;5073587;28;20742;-95
2022/07/21 02:17:01;;;;;;;19.90;10.17;;;22.90;71.70;;;;;;5080623;28;20611;-96
2022/07/21 02:19:30;;;;;;;16.90;9.60;;;22.90;71.70;;;;;;5064662;28;20239;-96
2022/07/21 02:21:57;;;;;;;12.30;8.23;;;22.90;72.10;;;;;;5076120;28;20208;-96
2022/07/21 02:24:34;;;;;;;13.03;8.93;;;22.90;71.90;;;;;;5073548;28;20270;-96
2022/07/21 02:27:02;;;;;;;15.63;9.07;;;23.00;72.70;;;;;;5061569;28;20262;-95
2022/07/21 02:29:30;;;;;;;13.07;8.77;;;23.00;72.40;;;;;;5070374;28;20295;-95
2022/07/21 02:32:08;;;;;;;13.57;10.13;;;22.90;72.30;;;;;;5084595;28;20205;-96
2022/07/21 02:34:35;;;;;;;13.30;9.73;;;23.00;73.60;;;;;;5083598;28;20214;-96
2022/07/21 02:37:26;;;;;;;14.93;9.87;;;22.90;72.70;;;;;;5060014;28;20193;-96
2022/07/21 02:39:55;;;;;;;15.10;10.07;;;22.90;73.90;;;;;;5085699;28;20259;-96
2022/07/21 02:42:23;;;;;;;22.20;11.77;;;22.90;73.30;;;;;;5075601;28;20221;-95
2022/07/21 02:44:56;;;;;;;20.67;11.37;;;22.90;73.40;;;;;;5075575;28;20284;-92
2022/07/21 02:47:26;;;;;;;19.70;12.23;;;22.80;74.50;;;;;;5074008;28;20250;-93
2022/07/21 02:49:55;;;;;;;18.83;12.07;;;22.80;74.30;;;;;;5073175;28;20234;-96
2022/07/21 02:52:23;;;;;;;24.47;13.03;;;22.80;74.30;;;;;;5077955;28;20236;-94
2022/07/21 02:54:51;;;;;;;15.00;11.60;;;22.80;74.40;;;;;;5062113;28;20890;-96
2022/07/21 02:57:20;;;;;;;19.57;12.57;;;22.80;74.40;;;;;;5073630;28;20862;-96
2022/07/21 02:59:50;;;;;;;14.93;10.87;;;22.80;74.90;;;;;;5057957;28;20204;-96
2022/07/21 03:02:17;;;;;;;18.77;11.80;;;22.80;75.40;;;;;;5076487;28;20244;-95
2022/07/21 03:04:44;;;;;;;20.50;11.83;;;22.80;75.10;;;;;;5080322;28;20208;-95
2022/07/21 03:07:11;;;;;;;20.37;12.23;;;22.70;75.50;;;;;;5088507;28;20900;-95
2022/07/21 03:09:43;;;;;;;16.30;11.50;;;22.60;75.90;;;;;;5086570;28;20196;-95
2022/07/21 03:12:22;;;;;;;14.27;10.27;;;22.60;76.30;;;;;;5076042;28;20203;-94
2022/07/21 03:14:55;;;;;;;20.37;13.37;;;22.60;77.40;;;;;;5056654;28;20900;-94
2022/07/21 03:17:28;;;;;;;17.03;12.40;;;22.50;78.30;;;;;;5064108;28;20275;-93
2022/07/21 03:19:55;;;;;;;14.57;11.13;;;22.50;77.50;;;;;;5068027;28;20192;-95
2022/07/21 03:22:22;;;;;;;18.87;12.87;;;22.50;76.90;;;;;;5063160;28;20223;-94
2022/07/21 03:24:50;;;;;;;19.57;13.70;;;22.50;77.40;;;;;;5060454;28;20228;-96
2022/07/21 03:27:23;;;;;;;19.53;13.80;;;22.40;77.50;;;;;;5054371;28;20205;-94
2022/07/21 03:29:59;;;;;;;19.73;14.50;;;22.40;78.90;;;;;;5056101;28;20211;-93
2022/07/21 03:32:26;;;;;;;20.57;15.33;;;22.40;79.00;;;;;;5063247;28;20250;-94
2022/07/21 03:34:53;;;;;;;21.80;16.07;;;22.50;78.20;;;;;;5074239;28;20266;-94
2022/07/21 03:37:20;;;;;;;24.87;17.10;;;22.40;78.50;;;;;;5057385;28;20271;-93
2022/07/21 03:39:53;;;;;;;28.30;16.73;;;22.40;78.80;;;;;;5074216;28;20587;-95
2022/07/21 03:42:20;;;;;;;22.57;15.90;;;22.30;79.50;;;;;;5063521;28;20203;-95
2022/07/21 03:44:51;;;;;;;25.60;17.73;;;22.40;79.20;;;;;;5056190;28;20212;-94
2022/07/21 03:47:20;;;;;;;30.80;18.97;;;22.30;79.50;;;;;;5064736;28;20644;-93
2022/07/21 03:49:47;;;;;;;27.50;18.37;;;22.30;79.70;;;;;;5073052;28;20270;-94
2022/07/21 03:52:14;;;;;;;27.13;17.73;;;22.30;79.30;;;;;;5057351;28;20258;-95
2022/07/21 03:54:41;;;;;;;24.17;17.07;;;22.30;79.50;;;;;;5073864;28;20317;-93
2022/07/21 03:57:09;;;;;;;25.13;19.00;;;22.30;79.90;;;;;;5072098;28;20298;-94
2022/07/21 03:59:36;;;;;;;26.67;18.20;;;22.30;80.20;;;;;;5072134;28;20212;-94
2022/07/21 04:02:05;;;;;;;23.87;17.83;;;22.30;80.30;;;;;;5072360;28;20227;-95
2022/07/21 04:04:33;;;;;;;26.17;18.80;;;22.30;81.20;;;;;;5071527;28;20310;-94
2022/07/21 04:07:02;;;;;;;24.37;19.97;;;22.30;81.00;;;;;;5053361;28;20219;-95
2022/07/21 04:09:31;;;;;;;28.60;19.73;;;22.30;81.50;;;;;;5051544;28;20235;-94
2022/07/21 04:12:01;;;;;;;27.80;19.33;;;22.30;81.70;;;;;;5060374;28;20199;-94
2022/07/21 04:14:28;;;;;;;32.03;20.23;;;22.30;82.00;;;;;;5071729;28;20265;-93
2022/07/21 04:16:55;;;;;;;32.40;21.20;;;22.30;81.80;;;;;;5053686;28;20300;-94
2022/07/21 04:19:30;;;;;;;28.60;19.53;;;22.30;82.00;;;;;;5061672;28;20643;-93
2022/07/21 04:21:59;;;;;;;26.83;19.80;;;22.30;83.10;;;;;;5056388;28;20207;-95
2022/07/21 04:24:26;;;;;;;26.70;19.90;;;22.30;82.80;;;;;;5055124;28;20498;-95
2022/07/21 04:26:55;;;;;;;28.37;19.53;;;22.30;82.40;;;;;;5056721;28;20621;-94
2022/07/21 04:29:22;;;;;;;28.33;19.53;;;22.30;83.10;;;;;;5051359;28;20224;-93
2022/07/21 04:31:49;;;;;;;30.73;21.03;;;22.30;83.00;;;;;;5048417;28;20290;-95
2022/07/21 04:34:16;;;;;;;27.97;19.30;;;22.30;83.40;;;;;;5049299;28;20266;-94
2022/07/21 04:36:44;;;;;;;32.50;20.07;;;22.30;83.40;;;;;;5049687;28;20215;-94
2022/07/21 04:39:12;;;;;;;29.67;19.27;;;22.30;84.20;;;;;;5049393;28;20576;-95
2022/07/21 04:41:40;;;;;;;29.60;19.43;;;22.30;84.10;;;;;;5061067;28;20242;-96
2022/07/21 04:44:07;;;;;;;31.53;20.10;;;22.30;84.60;;;;;;5067024;28;20231;-95
2022/07/21 04:46:35;;;;;;;30.90;20.37;;;22.40;85.10;;;;;;5069022;28;20215;-94
2022/07/21 04:49:03;;;;;;;24.20;17.07;;;22.40;86.60;;;;;;5056100;28;20208;-96
2022/07/21 04:51:30;;;;;;;19.53;16.93;;;22.40;85.70;;;;;;5072483;28;20253;-95
2022/07/21 04:53:58;;;;;;;20.60;17.20;;;22.40;85.10;;;;;;5060498;28;20223;-96
2022/07/21 04:56:27;;;;;;;29.73;17.30;;;22.50;86.40;;;;;;5052329;28;20239;-95
2022/07/21 04:58:59;;;;;;;19.73;15.77;;;22.50;86.30;;;;;;5061270;28;20207;-94
2022/07/21 05:01:28;;;;;;;25.00;16.50;;;22.60;87.20;;;;;;5068588;28;20242;-95
2022/07/21 05:03:56;;;;;;;21.50;14.80;;;22.60;86.70;;;;;;5052702;28;20288;-96
2022/07/21 05:06:24;;;;;;;17.40;14.43;;;22.60;86.10;;;;;;5060479;28;20196;-94
2022/07/21 05:08:52;;;;;;;17.93;13.57;;;22.60;86.00;;;;;;5052445;28;20185;-94
2022/07/21 05:11:21;;;;;;;23.83;14.77;;;22.70;86.60;;;;;;5060241;28;20532;-94
2022/07/21 05:13:48;;;;;;;17.60;12.43;;;22.70;86.50;;;;;;5062528;28;20723;-96
2022/07/21 05:16:15;;;;;;;20.93;11.43;;;22.80;86.40;;;;;;5061692;28;20204;-96
2022/07/21 05:18:44;;;;;;;20.43;10.87;;;22.80;86.60;;;;;;5069579;28;20207;-95
2022/07/21 05:21:11;;;;;;;16.07;9.97;;;22.80;87.20;;;;;;5053250;28;20193;-95
2022/07/21 05:23:38;;;;;;;17.80;10.37;;;22.80;86.50;;;;;;5060178;28;20319;-95
2022/07/21 05:26:06;;;;;;;16.43;9.20;;;22.80;86.70;;;;;;5073331;28;20228;-96
2022/07/21 05:28:37;;;;;;;16.37;9.60;;;22.80;87.00;;;;;;5064593;28;20208;-96
2022/07/21 05:31:04;;;;;;;14.57;8.43;;;22.80;87.30;;;;;;5061490;28;20254;-96
2022/07/21 05:33:34;;;;;;;13.57;8.13;;;22.80;86.30;;;;;;5068197;28;20279;-96
2022/07/21 05:36:04;;;;;;;13.83;7.93;;;22.90;87.10;;;;;;5054528;28;20199;-95
2022/07/21 05:38:37;;;;;;;12.87;7.23;;;22.90;86.60;;;;;;5073445;28;20195;-96
2022/07/21 05:41:07;;;;;;;19.33;9.53;;;22.90;86.80;;;;;;5069172;28;20305;-95
2022/07/21 05:43:37;;;;;;;12.97;6.50;;;22.90;86.30;;;;;;5070768;28;20688;-96
2022/07/21 05:46:04;;;;;;;11.43;6.83;;;22.90;86.50;;;;;;5073575;28;20196;-95
2022/07/21 05:48:37;;;;;;;12.40;6.87;;;22.90;85.70;;;;;;5071686;28;20239;-96
2022/07/21 05:51:06;;;;;;;16.87;8.33;;;22.90;86.90;;;;;;5071004;28;20199;-96
2022/07/21 05:53:34;;;;;;;14.73;7.00;;;22.90;86.90;;;;;;5066780;28;20207;-96
2022/07/21 05:56:02;;;;;;;15.93;7.33;;;22.90;86.20;;;;;;5053235;28;20191;-96
2022/07/21 05:58:30;;;;;;;11.07;6.67;;;22.90;86.20;;;;;;5072187;28;20792;-96
2022/07/21 06:01:12;;;;;;;16.47;7.27;;;22.90;86.40;;;;;;5065329;28;20207;-96
2022/07/21 06:03:43;;;;;;;9.53;6.40;;;22.90;86.80;;;;;;5067378;28;21027;-96
2022/07/21 06:06:10;;;;;;;14.23;6.73;;;22.90;85.70;;;;;;5070013;28;20238;-94
2022/07/21 06:08:39;;;;;;;22.90;10.13;;;22.90;85.60;;;;;;5066846;28;20204;-96
2022/07/21 06:11:08;;;;;;;14.97;7.00;;;22.90;86.20;;;;;;5068084;28;20233;-96
2022/07/21 06:13:38;;;;;;;16.03;7.90;;;22.90;86.60;;;;;;5062759;28;20201;-95
2022/07/21 06:16:11;;;;;;;15.33;6.63;;;22.90;86.90;;;;;;5051316;28;20671;-95
2022/07/21 06:18:38;;;;;;;13.47;6.47;;;22.90;86.50;;;;;;5062113;28;20216;-94
2022/07/21 06:21:06;;;;;;;10.07;6.37;;;22.90;86.40;;;;;;5054024;28;20254;-96
2022/07/21 06:23:33;;;;;;;11.00;6.43;;;22.80;86.50;;;;;;5054317;28;20232;-96
2022/07/21 06:26:01;;;;;;;14.50;7.07;;;22.80;85.80;;;;;;5056975;28;20268;-96
2022/07/21 06:28:29;;;;;;;11.50;6.13;;;22.80;86.30;;;;;;5060021;28;20547;-95
2022/07/21 06:30:57;;;;;;;13.23;6.50;;;22.80;86.30;;;;;;5065726;28;20322;-94
2022/07/21 06:33:31;;;;;;;14.67;6.50;;;22.80;85.80;;;;;;5070521;28;20931;-95
2022/07/21 06:36:02;;;;;;;9.60;5.93;;;22.80;86.90;;;;;;5077696;28;20196;-95
2022/07/21 06:38:33;;;;;;;12.70;7.40;;;22.80;86.80;;;;;;5077720;28;20230;-96
2022/07/21 06:41:01;;;;;;;12.10;7.33;;;22.80;86.70;;;;;;5079068;28;20814;-96
2022/07/21 06:43:28;;;;;;;15.03;7.33;;;22.80;85.80;;;;;;5082320;28;20223;-96
2022/07/21 06:45:56;;;;;;;15.93;8.10;;;22.70;85.50;;;;;;5073791;28;20201;-95
2022/07/21 06:48:24;;;;;;;14.30;7.13;;;22.70;85.40;;;;;;5079942;28;20725;-96
2022/07/21 06:50:54;;;;;;;15.67;7.20;;;22.70;86.40;;;;;;5064726;28;20201;-96
2022/07/21 06:53:23;;;;;;;17.73;8.20;;;22.70;86.60;;;;;;5058876;28;20219;-96
2022/07/21 06:55:55;;;;;;;11.37;6.17;;;22.60;86.60;;;;;;5074037;28;20249;-96
2022/07/21 06:58:29;;;;;;;13.57;6.77;;;22.60;86.10;;;;;;5077230;28;20200;-96
2022/07/21 07:00:56;;;;;;;13.07;6.67;;;22.60;86.50;;;;;;5063507;28;20214;-96
2022/07/21 07:03:26;;;;;;;7.40;5.27;;;22.60;86.10;;;;;;5077674;28;20211;-96
2022/07/21 07:06:00;;;;;;;8.57;5.13;;;22.60;87.40;;;;;;5079230;28;20253;-95
2022/07/21 07:08:30;;;;;;;10.70;5.70;;;22.60;87.40;;;;;;5063921;28;20200;-95
2022/07/21 07:10:57;;;;;;;11.60;5.27;;;22.60;87.00;;;;;;5067956;28;20290;-95
2022/07/21 07:13:33;;;;;;;13.17;5.97;;;22.60;86.70;;;;;;5072031;28;20199;-95
2022/07/21 07:16:01;;;;;;;10.47;5.03;;;22.60;87.80;;;;;;5074427;28;20211;-96
2022/07/21 07:18:30;;;;;;;8.20;4.80;;;22.60;87.70;;;;;;5067942;28;20204;-96
2022/07/21 07:20:59;;;;;;;12.50;5.43;;;22.50;87.20;;;;;;5066483;28;20244;-95
2022/07/21 07:23:32;;;;;;;11.23;5.00;;;22.50;87.90;;;;;;5065283;28;20618;-94
2022/07/21 07:25:59;;;;;;;14.83;5.53;;;22.50;88.20;;;;;;5041328;28;20200;-93
2022/07/21 07:28:28;;;;;;;11.10;4.77;;;22.50;87.40;;;;;;5063480;28;20211;-94
2022/07/21 07:30:56;;;;;;;10.57;4.97;;;22.50;87.80;;;;;;5047456;28;20227;-95
2022/07/21 07:33:27;;;;;;;11.23;5.60;;;22.50;88.10;;;;;;5061190;28;20216;-92
2022/07/21 07:35:57;;;;;;;17.47;5.97;;;22.50;88.20;;;;;;5068125;28;20187;-95
2022/07/21 07:38:27;;;;;;;11.37;6.00;;;22.40;88.00;;;;;;5071791;28;20555;-93
2022/07/21 07:40:56;;;;;;;20.67;7.27;;;22.40;88.70;;;;;;5055948;28;20206;-95
2022/07/21 07:43:24;;;;;;;11.17;5.20;;;22.40;88.20;;;;;;5061401;28;20307;-94
2022/07/21 07:45:52;;;;;;;12.67;5.20;;;22.40;88.30;;;;;;5057247;28;20709;-94
2022/07/21 07:48:19;;;;;;;13.47;6.67;;;22.40;88.60;;;;;;5074119;28;20505;-94
2022/07/21 07:50:46;;;;;;;17.93;7.70;;;22.40;87.80;;;;;;5069573;28;20203;-91
2022/07/21 07:53:13;;;;;;;17.30;7.37;;;22.40;87.60;;;;;;5062639;28;20227;-93
2022/07/21 07:55:42;;;;;;;18.83;6.83;;;22.40;87.60;;;;;;5082296;28;20197;-92
2022/07/21 07:58:09;;;;;;;13.63;6.50;;;22.40;88.00;;;;;;5082746;28;20210;-91
2022/07/21 08:00:40;;;;;;;14.80;6.07;;;22.40;87.50;;;;;;5077368;28;20234;-94
2022/07/21 08:03:07;;;;;;;15.87;6.70;;;22.30;87.80;;;;;;5070937;28;20202;-96
2022/07/21 08:05:38;;;;;;;17.50;7.50;;;22.40;87.70;;;;;;5072695;28;20223;-94
2022/07/21 08:08:05;;;;;;;9.50;5.80;;;22.40;88.20;;;;;;5075009;28;20196;-93
2022/07/21 08:10:33;;;;;;;10.90;6.40;;;22.30;87.70;;;;;;5056053;28;20200;-93
2022/07/21 08:13:05;;;;;;;16.70;6.73;;;22.30;87.30;;;;;;5054080;28;20197;-93
2022/07/21 08:15:32;;;;;;;17.07;7.03;;;22.40;87.80;;;;;;5069403;28;20308;-92
2022/07/21 08:18:00;;;;;;;20.17;7.60;;;22.30;87.40;;;;;;5067725;28;20208;-93
2022/07/21 08:20:30;;;;;;;14.23;7.13;;;22.30;87.70;;;;;;5060218;28;20270;-93
2022/07/21 08:23:00;;;;;;;15.03;6.00;;;22.30;87.80;;;;;;5066390;28;20211;-92
2022/07/21 08:25:28;;;;;;;11.17;5.60;;;22.30;87.40;;;;;;5070125;28;20798;-92
2022/07/21 08:27:55;;;;;;;15.50;5.47;;;22.40;88.40;;;;;;5063960;28;20232;-94
2022/07/21 08:30:28;;;;;;;13.33;5.73;;;22.30;88.00;;;;;;5051629;28;20704;-93
2022/07/21 08:32:55;;;;;;;10.23;5.10;;;22.40;88.30;;;;;;5055456;28;20204;-91
2022/07/21 08:35:22;;;;;;;10.67;5.53;;;22.30;87.60;;;;;;5069451;28;20228;-92
2022/07/21 08:37:55;;;;;;;15.67;6.63;;;22.40;88.30;;;;;;5069137;28;20279;-92
2022/07/21 08:40:25;;;;;;;12.60;5.47;;;22.30;88.50;;;;;;5056202;28;20243;-93
2022/07/21 08:42:53;;;;;;;14.33;5.67;;;22.40;87.80;;;;;;5060560;28;20212;-93
2022/07/21 08:45:21;;;;;;;13.10;5.30;;;22.40;88.30;;;;;;5046655;28;20235;-94
2022/07/21 08:47:52;;;;;;;13.47;4.90;;;22.30;87.60;;;;;;5069863;28;20203;-92
2022/07/21 08:50:24;;;;;;;14.83;5.33;;;22.40;87.70;;;;;;5068162;28;20548;-92
2022/07/21 08:52:53;;;;;;;9.20;4.07;;;22.30;87.50;;;;;;5061157;28;20618;-93
2022/07/21 08:55:22;;;;;;;15.67;5.20;;;22.30;87.80;;;;;;5059772;28;20279;-91
2022/07/21 08:57:50;;;;;;;10.63;4.73;;;22.30;88.20;;;;;;5056824;28;20281;-93
2022/07/21 09:00:17;;;;;;;10.03;4.70;;;22.30;88.50;;;;;;5064912;28;20195;-91
2022/07/21 09:02:44;;;;;;;11.10;4.67;;;22.30;89.40;;;;;;5057173;28;20232;-93
2022/07/21 09:05:13;;;;;;;15.90;4.33;;;22.40;88.40;;;;;;5056959;28;20235;-92
2022/07/21 09:07:51;;;;;;;12.30;4.80;;;22.40;88.80;;;;;;5068607;28;20228;-92
2022/07/21 09:10:24;;;;;;;9.67;4.50;;;22.40;89.50;;;;;;5069211;28;20604;-92
2022/07/21 09:12:53;;;;;;;18.17;5.23;;;22.40;89.30;;;;;;5070194;28;20217;-94
2022/07/21 09:15:22;;;;;;;11.27;4.40;;;22.50;88.70;;;;;;5069444;28;20885;-92
2022/07/21 09:18:06;;;;;;;10.70;4.53;;;22.50;88.70;;;;;;5071501;28;20885;-94
2022/07/21 09:20:39;;;;;;;13.77;4.63;;;22.60;88.20;;;;;;5070439;28;20199;-94
2022/07/21 09:23:10;;;;;;;8.50;3.87;;;22.60;87.80;;;;;;5063234;28;20653;-94
2022/07/21 09:25:40;;;;;;;13.10;5.23;;;22.60;87.60;;;;;;5062352;28;20232;-95
2022/07/21 09:28:15;;;;;;;8.83;4.07;;;22.60;87.20;;;;;;5052962;28;20643;-95
2022/07/21 09:31:00;;;;;;;16.93;5.77;;;22.60;87.40;;;;;;5052808;28;20312;-95
2022/07/21 09:33:32;;;;;;;12.47;4.13;;;22.70;87.10;;;;;;5060706;28;20224;-92
2022/07/21 09:36:04;;;;;;;19.60;7.20;;;22.70;87.00;;;;;;5055440;28;20646;-92
2022/07/21 09:38:33;;;;;;;8.43;3.47;;;22.70;86.50;;;;;;5063840;28;20253;-92
2022/07/21 09:41:13;;;;;;;9.17;3.93;;;22.70;86.80;;;;;;5055326;28;20728;-93
2022/07/21 09:43:44;;;;;;;16.40;6.00;;;22.80;86.70;;;;;;5056537;28;20215;-94
2022/07/21 09:46:15;;;;;;;14.97;5.60;;;22.80;86.80;;;;;;5065142;28;20226;-91
2022/07/21 09:48:44;;;;;;;9.50;4.20;;;22.80;86.60;;;;;;5068526;28;20327;-94
2022/07/21 09:51:30;;;;;;;10.13;3.57;;;22.80;86.60;;;;;;5068554;28;20265;-92
2022/07/21 09:54:02;;;;;;;9.33;4.07;;;22.80;86.90;;;;;;5049942;28;20300;-92
2022/07/21 09:56:31;;;;;;;10.43;4.03;;;22.80;86.60;;;;;;5051324;28;20209;-93
2022/07/21 09:59:00;;;;;;;8.60;3.97;;;22.80;86.50;;;;;;5070249;28;20201;-93
2022/07/21 10:01:29;;;;;;;18.67;6.60;;;22.80;86.50;;;;;;5063769;28;20361;-92
2022/07/21 10:03:58;;;;;;;10.77;4.40;;;22.80;87.10;;;;;;5048068;28;20236;-92
2022/07/21 10:06:29;;;;;;;15.47;5.47;;;22.90;87.10;;;;;;5050689;28;20314;-93
2022/07/21 10:08:58;;;;;;;16.07;5.73;;;22.90;87.40;;;;;;5062061;28;20263;-93
2022/07/21 10:11:26;;;;;;;13.37;4.60;;;22.90;86.30;;;;;;5068341;28;20203;-93
2022/07/21 10:13:55;;;;;;;12.10;4.57;;;22.90;85.40;;;;;;5069982;28;20200;-93
2022/07/21 10:16:22;;;;;;;18.40;5.50;;;22.90;86.20;;;;;;5069487;28;20213;-95
2022/07/21 10:19:11;;;;;;;9.87;4.17;;;23.00;85.10;;;;;;5065844;28;20198;-93
2022/07/21 10:21:49;;;;;;;15.77;5.70;;;23.00;85.70;;;;;;5058421;28;20249;-93
2022/07/21 10:24:19;;;;;;;9.50;4.10;;;23.00;85.70;;;;;;5060103;28;20196;-93
2022/07/21 10:27:07;;;;;;;17.27;6.40;;;23.00;85.70;;;;;;5060249;28;20197;-92
2022/07/21 10:30:01;;;;;;;10.17;4.23;;;23.10;85.50;;;;;;5062532;28;20947;-93
2022/07/21 10:32:34;;;;;;;16.37;5.13;;;23.10;84.00;;;;;;5056324;28;20196;-92
2022/07/21 10:35:04;;;;;;;12.73;4.90;;;23.10;84.20;;;;;;5062081;28;20198;-92
2022/07/21 10:37:49;;;;;;;16.60;5.60;;;23.10;84.50;;;;;;5061187;28;20608;-95
2022/07/21 10:40:41;;;;;;;13.57;5.03;;;23.10;84.00;;;;;;5061543;28;20203;-91
2022/07/21 10:43:40;;;;;;;15.97;5.90;;;23.10;82.60;;;;;;5061820;28;20191;-93
2022/07/21 10:46:48;;;;;;;14.93;5.43;;;23.00;83.40;;;;;;5069785;28;20228;-92
2022/07/21 10:49:51;;;;;;;17.00;5.20;;;23.10;83.10;;;;;;5004444;28;20292;-95
2022/07/21 10:53:01;;;;;;;15.67;5.53;;;23.10;83.50;;;;;;5058127;28;20204;-92
2022/07/21 10:55:30;;;;;;;19.30;6.43;;;23.10;83.30;;;;;;5060029;28;20253;-92
2022/07/21 10:58:13;;;;;;;15.67;5.53;;;23.10;83.50;;;;;;5063907;28;20206;-91
2022/07/21 11:00:44;;;;;;;10.57;4.47;;;23.10;83.20;;;;;;5064728;28;20196;-93
2022/07/21 11:03:20;;;;;;;12.37;4.73;;;23.10;83.90;;;;;;5062272;28;20288;-93
2022/07/21 11:06:18;;;;;;;17.10;5.90;;;23.10;82.30;;;;;;5058766;28;20240;-91
2022/07/21 11:08:51;;;;;;;13.77;4.33;;;23.10;83.20;;;;;;5058167;28;20200;-91
2022/07/21 11:11:20;;;;;;;15.23;4.90;;;23.10;83.20;;;;;;5060351;28;20227;-94
2022/07/21 11:14:09;;;;;;;14.90;4.93;;;23.20;82.70;;;;;;5061633;28;20643;-92
2022/07/21 11:17:10;;;;;;;14.80;5.00;;;23.10;81.20;;;;;;5048318;28;20219;-93
2022/07/21 11:19:48;;;;;;;14.77;4.67;;;23.10;81.70;;;;;;5046334;28;20625;-92
2022/07/21 11:22:17;;;;;;;15.70;5.40;;;23.20;81.20;;;;;;5046309;28;20221;-91
2022/07/21 11:24:48;;;;;;;16.03;5.17;;;23.20;81.70;;;;;;5051000;28;20212;-91
2022/07/21 11:27:19;;;;;;;15.87;5.43;;;23.20;82.80;;;;;;5046220;28;20208;-93
2022/07/21 11:29:47;;;;;;;10.23;4.93;;;23.20;82.00;;;;;;5049369;28;20226;-93
2022/07/21 11:32:18;;;;;;;13.23;5.60;;;23.10;82.10;;;;;;5051127;28;20596;-91
2022/07/21 11:34:49;;;;;;;13.53;5.67;;;23.20;82.30;;;;;;5048109;28;20283;-93
2022/07/21 11:37:18;;;;;;;15.63;5.90;;;23.10;82.30;;;;;;5046148;28;20200;-95
2022/07/21 11:39:51;;;;;;;13.63;5.60;;;23.20;81.80;;;;;;5048396;28;20251;-94
2022/07/21 11:42:20;;;;;;;13.43;4.97;;;23.20;81.50;;;;;;5015680;28;20209;-95
2022/07/21 11:44:49;;;;;;;21.60;6.77;;;23.30;81.40;;;;;;5033875;28;20190;-93
2022/07/21 11:47:22;;;;;;;15.03;4.80;;;23.20;81.20;;;;;;5034967;28;20229;-92
2022/07/21 11:49:58;;;;;;;18.60;6.00;;;23.30;81.20;;;;;;5038560;28;21024;-94
2022/07/21 11:52:27;;;;;;;12.10;4.37;;;23.40;81.50;;;;;;5049704;28;20208;-93
2022/07/21 11:54:57;;;;;;;23.00;6.50;;;23.40;81.40;;;;;;5039623;28;20899;-94
2022/07/21 11:57:26;;;;;;;18.80;5.93;;;23.40;79.60;;;;;;5034522;28;20206;-92
2022/07/21 11:59:56;;;;;;;17.73;6.17;;;23.40;79.10;;;;;;5042826;28;20203;-94
2022/07/21 12:02:30;;;;;;;15.47;5.77;;;23.40;78.80;;;;;;5032757;28;20204;-93
2022/07/21 12:04:59;;;;;;;14.87;5.27;;;23.40;78.50;;;;;;5038633;28;20214;-93
2022/07/21 12:07:29;;;;;;;19.77;6.57;;;23.40;78.40;;;;;;5045707;28;21672;-92
2022/07/21 12:10:00;;;;;;;14.17;5.90;;;23.40;78.10;;;;;;5046184;28;20205;-93
2022/07/21 12:12:35;;;;;;;12.30;4.47;;;23.40;77.80;;;;;;5037885;28;24307;-93
2022/07/21 12:15:15;;;;;;;12.37;4.53;;;23.40;78.10;;;;;;5034317;28;20298;-94
2022/07/21 12:18:00;;;;;;;18.77;6.53;;;23.40;78.40;;;;;;5033106;28;20218;-94
2022/07/21 12:20:31;;;;;;;14.00;5.40;;;23.40;77.90;;;;;;5031436;28;20196;-94
2022/07/21 12:23:03;;;;;;;14.57;5.27;;;23.40;77.40;;;;;;5037003;28;20267;-93
2022/07/21 12:25:39;;;;;;;15.97;4.67;;;23.40;77.40;;;;;;5031888;28;20236;-94
2022/07/21 12:28:08;;;;;;;18.07;5.53;;;23.40;78.30;;;;;;5039223;28;20211;-93
2022/07/21 12:30:43;;;;;;;25.67;7.27;;;23.40;77.60;;;;;;5036769;28;20204;-90
2022/07/21 12:33:11;;;;;;;12.83;5.23;;;23.40;77.10;;;;;;5044033;28;20202;-95
2022/07/21 12:35:40;;;;;;;20.63;7.27;;;23.40;77.00;;;;;;5053826;28;20198;-95
2022/07/21 12:38:11;;;;;;;20.63;5.90;;;23.40;77.30;;;;;;5043324;28;20579;-95
2022/07/21 12:40:57;;;;;;;10.90;5.03;;;23.40;76.50;;;;;;5041845;28;20204;-94
2022/07/21 12:43:26;;;;;;;12.63;4.87;;;23.40;76.60;;;;;;5033571;28;20213;-94
2022/07/21 12:46:03;;;;;;;20.10;6.13;;;23.40;76.70;;;;;;5043880;28;20216;-93
2022/07/21 12:48:32;;;;;;;14.93;4.83;;;23.40;76.70;;;;;;5047439;28;20231;-92
2022/07/21 12:51:15;;;;;;;12.90;5.13;;;23.50;76.60;;;;;;5032240;28;20703;-93
2022/07/21 12:53:49;;;;;;;14.30;5.33;;;23.50;76.50;;;;;;5044619;28;20278;-94
2022/07/21 12:56:21;;;;;;;16.07;5.73;;;23.40;76.20;;;;;;5045083;28;20200;-92
2022/07/21 12:58:50;;;;;;;17.17;6.70;;;23.50;76.60;;;;;;5040908;28;20206;-94